Time;durP1;ratioP1;P1;durP2;ratioP2;P2;SDS_P1;SDS_P2;PMS_P1;PMS_P2;Temp;Humidity;BMP_temperature;BMP_pressure;BME280_temperature;BME280_humidity;BME280_pressure;Samples;Min_cycle;Max_cycle;Signal;HPM_P1;HPM_P2
2021/06/02 00:02:00;;;;;;;8.02;4.90;;;14.10;99.90;;;;;;5070845;28;20036;-55
2021/06/02 00:04:31;;;;;;;8.25;5.30;;;14.00;99.90;;;;;;5091364;28;20031;-56
2021/06/02 00:07:00;;;;;;;9.52;6.22;;;14.00;99.90;;;;;;5091213;28;20125;-58
2021/06/02 00:09:27;;;;;;;6.97;5.22;;;13.90;99.90;;;;;;5071141;28;20024;-58
2021/06/02 00:11:55;;;;;;;7.68;5.45;;;13.90;99.90;;;;;;5077778;28;20490;-57
2021/06/02 00:14:23;;;;;;;9.38;5.55;;;13.80;99.90;;;;;;5079847;28;20037;-56
2021/06/02 00:16:50;;;;;;;12.98;5.95;;;13.80;99.90;;;;;;5085265;28;20651;-55
2021/06/02 00:19:16;;;;;;;9.43;6.43;;;13.70;99.90;;;;;;5079406;28;20021;-56
2021/06/02 00:21:42;;;;;;;11.30;6.32;;;13.60;99.90;;;;;;5070131;28;20041;-57
2021/06/02 00:24:08;;;;;;;17.95;11.30;;;13.50;99.90;;;;;;5064542;28;20029;-56
2021/06/02 00:26:35;;;;;;;27.67;17.30;;;13.50;99.90;;;;;;5072018;28;20039;-55
2021/06/02 00:29:04;;;;;;;26.55;15.73;;;13.40;99.90;;;;;;5070818;28;20098;-56
2021/06/02 00:31:32;;;;;;;26.73;15.00;;;13.40;99.90;;;;;;5069521;28;20027;-56
2021/06/02 00:34:01;;;;;;;17.30;10.85;;;13.40;99.90;;;;;;5091198;28;20032;-56
2021/06/02 00:36:29;;;;;;;14.70;9.48;;;13.30;99.90;;;;;;5067142;28;20028;-55
2021/06/02 00:38:55;;;;;;;13.30;8.60;;;13.30;99.90;;;;;;5068547;28;20051;-57
2021/06/02 00:41:20;;;;;;;15.68;8.38;;;13.30;99.90;;;;;;5072866;28;20017;-53
2021/06/02 00:43:47;;;;;;;17.55;7.82;;;13.30;99.90;;;;;;5076708;28;20112;-52
2021/06/02 00:46:14;;;;;;;16.77;8.88;;;13.30;99.90;;;;;;5070333;28;20032;-53
2021/06/02 00:48:42;;;;;;;11.02;8.80;;;13.30;99.90;;;;;;5089445;28;20042;-55
2021/06/02 00:51:09;;;;;;;10.70;8.15;;;13.30;99.90;;;;;;5074032;28;20081;-54
2021/06/02 00:53:35;;;;;;;12.57;8.15;;;13.30;99.90;;;;;;5074545;28;20063;-54
2021/06/02 00:56:08;;;;;;;12.82;7.63;;;13.30;99.90;;;;;;5077238;28;20020;-53
2021/06/02 00:58:41;;;;;;;10.13;6.65;;;13.30;99.90;;;;;;5070571;28;20033;-57
2021/06/02 01:01:09;;;;;;;10.10;6.80;;;13.30;99.90;;;;;;5070352;28;20595;-55
2021/06/02 01:03:36;;;;;;;15.07;7.82;;;13.30;99.90;;;;;;5067962;28;20025;-52
2021/06/02 01:06:03;;;;;;;13.38;6.97;;;13.30;99.90;;;;;;5068420;28;20417;-58
2021/06/02 01:08:30;;;;;;;11.05;7.40;;;13.30;99.90;;;;;;5072211;28;20089;-55
2021/06/02 01:10:56;;;;;;;11.80;7.35;;;13.30;99.90;;;;;;5066431;28;20112;-57
2021/06/02 01:13:22;;;;;;;10.60;7.35;;;13.30;99.90;;;;;;5072173;28;20039;-57
2021/06/02 01:15:50;;;;;;;11.13;6.80;;;13.30;99.90;;;;;;5076615;28;20032;-55
2021/06/02 01:18:16;;;;;;;11.10;7.25;;;13.20;99.90;;;;;;5072120;28;20060;-55
2021/06/02 01:20:42;;;;;;;14.57;7.00;;;13.10;99.90;;;;;;5070786;28;20070;-50
2021/06/02 01:23:08;;;;;;;9.35;7.03;;;13.10;99.90;;;;;;5070437;28;20059;-51
2021/06/02 01:25:36;;;;;;;8.10;6.53;;;13.10;99.90;;;;;;5072025;28;20375;-53
2021/06/02 01:28:03;;;;;;;8.65;6.78;;;13.10;99.90;;;;;;5058711;28;20113;-57
2021/06/02 01:30:29;;;;;;;13.00;6.40;;;13.20;99.90;;;;;;5068818;28;20028;-54
2021/06/02 01:33:40;;;;;;;11.18;6.57;;;13.30;99.90;;;;;;5066068;28;20025;-54
2021/06/02 01:36:10;;;;;;;11.20;6.63;;;13.30;99.90;;;;;;5068286;28;20105;-56
2021/06/02 01:38:51;;;;;;;11.73;6.97;;;13.30;99.90;;;;;;5070149;28;20082;-57
2021/06/02 01:41:48;;;;;;;7.40;6.32;;;13.30;99.90;;;;;;5070739;28;20029;-56
2021/06/02 01:44:17;;;;;;;11.93;6.32;;;13.30;99.90;;;;;;5065626;28;20029;-58
2021/06/02 01:47:04;;;;;;;8.27;6.38;;;13.30;99.90;;;;;;5062631;28;20048;-58
2021/06/02 01:49:50;;;;;;;8.52;5.80;;;13.30;99.90;;;;;;5078151;28;20025;-54
2021/06/02 01:52:34;;;;;;;12.75;6.55;;;13.40;99.90;;;;;;5075772;28;20017;-59
2021/06/02 01:55:24;;;;;;;8.10;5.75;;;13.40;99.90;;;;;;5075405;28;20055;-54
2021/06/02 01:58:22;;;;;;;28.88;8.50;;;13.40;99.90;;;;;;5089369;28;20031;-57
2021/06/02 02:01:21;;;;;;;7.82;5.43;;;13.40;99.90;;;;;;5059488;28;20127;-58
2021/06/02 02:04:06;;;;;;;8.68;5.38;;;13.40;99.90;;;;;;5071690;28;20025;-57
2021/06/02 02:06:46;;;;;;;12.30;5.25;;;13.40;99.90;;;;;;5074225;28;20065;-57
2021/06/02 02:09:17;;;;;;;7.60;5.35;;;13.40;99.90;;;;;;5086459;28;20089;-55
2021/06/02 02:11:43;;;;;;;8.65;5.95;;;13.40;99.90;;;;;;5073346;28;20024;-56
2021/06/02 02:14:32;;;;;;;7.10;5.18;;;13.30;99.90;;;;;;5083019;28;20056;-57
2021/06/02 02:17:28;;;;;;;8.68;5.28;;;13.20;99.90;;;;;;5076936;28;20401;-57
2021/06/02 02:20:01;;;;;;;6.45;5.00;;;13.10;99.90;;;;;;5072336;28;20036;-56
2021/06/02 02:22:33;;;;;;;11.17;6.00;;;13.10;99.90;;;;;;5073042;28;20662;-56
2021/06/02 02:25:37;;;;;;;11.43;5.05;;;13.00;99.90;;;;;;5071151;28;20023;-55
2021/06/02 02:28:40;;;;;;;8.30;6.15;;;12.80;99.90;;;;;;5037101;28;20409;-56
2021/06/02 02:31:26;;;;;;;8.18;5.28;;;12.80;99.90;;;;;;5067132;28;20486;-58
2021/06/02 02:34:06;;;;;;;9.57;5.47;;;12.80;99.90;;;;;;5068281;28;20078;-56
2021/06/02 02:36:41;;;;;;;8.10;5.40;;;12.80;99.90;;;;;;5079587;28;20032;-55
2021/06/02 02:39:23;;;;;;;7.40;4.95;;;12.80;99.90;;;;;;5074769;28;20028;-58
2021/06/02 02:41:59;;;;;;;11.20;5.70;;;12.90;99.90;;;;;;5082440;28;20023;-54
2021/06/02 02:44:53;;;;;;;7.70;5.32;;;12.90;99.90;;;;;;5071968;28;20090;-58
2021/06/02 02:48:14;;;;;;;12.10;5.50;;;12.80;99.90;;;;;;5067938;28;20510;-57
2021/06/02 02:51:03;;;;;;;10.13;5.65;;;12.70;99.90;;;;;;4974006;28;20037;-58
2021/06/02 02:53:57;;;;;;;13.70;5.93;;;12.60;99.90;;;;;;5066485;28;20116;-57
2021/06/02 02:56:34;;;;;;;10.10;6.20;;;12.60;99.90;;;;;;5069636;28;20116;-57
2021/06/02 02:59:09;;;;;;;9.27;6.03;;;12.50;99.90;;;;;;5076311;28;20033;-57
2021/06/02 03:01:59;;;;;;;9.15;5.78;;;12.30;99.90;;;;;;5075996;28;20024;-58
2021/06/02 03:04:26;;;;;;;7.85;6.40;;;12.30;99.90;;;;;;5028295;28;20111;-56
2021/06/02 03:06:59;;;;;;;11.88;5.90;;;12.20;99.90;;;;;;5072903;28;20029;-54
2021/06/02 03:09:28;;;;;;;11.45;6.97;;;12.20;99.90;;;;;;5070746;28;20029;-55
2021/06/02 03:12:13;;;;;;;7.43;5.93;;;12.20;99.90;;;;;;5077445;28;20024;-57
2021/06/02 03:14:38;;;;;;;;;;;12.10;99.90;;;;;;5068167;28;20505;-57
2021/06/02 03:17:29;;;;;;;9.82;6.72;;;12.10;99.90;;;;;;5074534;28;19908;-57
2021/06/02 03:20:13;;;;;;;11.85;7.28;;;12.10;99.90;;;;;;5069530;28;20035;-57
2021/06/02 03:22:52;;;;;;;10.90;6.50;;;12.00;99.90;;;;;;5071359;28;20584;-58
2021/06/02 03:25:48;;;;;;;9.35;6.95;;;11.90;99.90;;;;;;5064356;28;20033;-58
2021/06/02 03:28:33;;;;;;;13.45;7.40;;;11.90;99.90;;;;;;5063040;28;20544;-55
2021/06/02 03:31:36;;;;;;;11.13;7.30;;;11.90;99.90;;;;;;5068806;28;20033;-58
2021/06/02 03:34:20;;;;;;;9.73;7.13;;;11.80;99.90;;;;;;5067870;28;20078;-58
2021/06/02 03:37:06;;;;;;;9.32;6.57;;;11.80;99.90;;;;;;5069875;28;20035;-58
2021/06/02 03:39:46;;;;;;;10.18;7.78;;;11.90;99.90;;;;;;5066739;28;20113;-59
2021/06/02 03:42:20;;;;;;;15.02;7.97;;;11.80;99.90;;;;;;5082970;22;20059;-54
2021/06/02 03:45:02;;;;;;;13.82;7.15;;;11.80;99.90;;;;;;5069805;28;20060;-52
2021/06/02 03:48:12;;;;;;;11.80;7.78;;;11.80;99.90;;;;;;5061873;28;20386;-58
2021/06/02 03:51:02;;;;;;;12.25;7.55;;;11.80;99.90;;;;;;5064835;28;20056;-55
2021/06/02 03:53:55;;;;;;;10.82;7.65;;;11.80;99.90;;;;;;5068026;28;20106;-54
2021/06/02 03:56:39;;;;;;;12.48;7.65;;;11.80;99.90;;;;;;5067800;28;20031;-54
2021/06/02 03:59:23;;;;;;;10.43;7.90;;;11.80;99.90;;;;;;5070295;28;20520;-54
2021/06/02 04:01:54;;;;;;;10.20;7.28;;;11.80;99.90;;;;;;5067641;28;20051;-53
2021/06/02 04:04:57;;;;;;;11.98;7.45;;;11.80;99.90;;;;;;5066189;28;20061;-54
2021/06/02 04:07:34;;;;;;;14.57;8.13;;;11.80;99.90;;;;;;5060323;28;20494;-54
2021/06/02 04:10:07;;;;;;;10.10;7.82;;;11.70;99.90;;;;;;5069716;28;20120;-56
2021/06/02 04:13:29;;;;;;;13.80;8.38;;;11.70;99.90;;;;;;5067389;28;20033;-54
2021/06/02 04:16:14;;;;;;;13.82;8.05;;;11.70;99.90;;;;;;5013701;28;20125;-54
2021/06/02 04:18:45;;;;;;;13.75;7.80;;;11.70;99.90;;;;;;5013998;28;20068;-53
2021/06/02 04:21:15;;;;;;;12.93;8.02;;;11.80;99.90;;;;;;5059645;28;20040;-53
2021/06/02 04:23:43;;;;;;;12.77;7.25;;;11.90;99.90;;;;;;5066746;28;20463;-53
2021/06/02 04:26:09;;;;;;;11.15;7.50;;;12.00;99.90;;;;;;5069206;28;20146;-54
2021/06/02 04:28:36;;;;;;;12.02;7.93;;;12.10;99.90;;;;;;5068530;28;20020;-53
2021/06/02 04:31:10;;;;;;;13.90;7.78;;;12.20;99.90;;;;;;5066993;28;20062;-56
2021/06/02 04:33:37;;;;;;;;;;;12.20;99.90;;;;;;5065105;28;20552;-59
2021/06/02 04:36:08;;;;;;;8.75;6.95;;;12.30;99.90;;;;;;5063567;28;19908;-54
2021/06/02 04:38:34;;;;;;;11.75;6.75;;;12.40;99.90;;;;;;5067620;28;20107;-54
2021/06/02 04:41:05;;;;;;;16.15;7.07;;;12.40;99.90;;;;;;5068762;28;20485;-53
2021/06/02 04:43:35;;;;;;;9.80;6.75;;;12.50;99.90;;;;;;5066492;28;20135;-57
2021/06/02 04:46:03;;;;;;;10.80;7.15;;;12.60;99.90;;;;;;5064724;28;20406;-56
2021/06/02 04:48:29;;;;;;;10.93;6.78;;;12.60;99.90;;;;;;5068071;28;20089;-55
2021/06/02 04:51:07;;;;;;;10.32;6.75;;;12.70;99.90;;;;;;5067071;28;20035;-57
2021/06/02 04:54:10;;;;;;;10.90;6.78;;;12.80;99.90;;;;;;5058471;28;20532;-56
2021/06/02 04:57:01;;;;;;;8.10;6.18;;;12.80;99.90;;;;;;5061564;28;20391;-54
2021/06/02 04:59:50;;;;;;;16.23;5.97;;;12.90;99.90;;;;;;5063446;28;20032;-57
2021/06/02 05:02:34;;;;;;;8.27;5.82;;;13.00;99.90;;;;;;5058785;28;20045;-57
2021/06/02 05:05:20;;;;;;;7.80;5.60;;;13.10;99.90;;;;;;5066366;28;20059;-54
2021/06/02 05:08:16;;;;;;;11.02;6.03;;;13.10;99.90;;;;;;5060127;28;20520;-57
2021/06/02 05:11:19;;;;;;;8.68;5.75;;;13.20;99.90;;;;;;5069318;28;20075;-53
2021/06/02 05:14:03;;;;;;;15.80;6.47;;;13.30;99.90;;;;;;5068854;28;20104;-57
2021/06/02 05:16:34;;;;;;;13.75;6.18;;;13.40;99.90;;;;;;5066865;28;20154;-56
2021/06/02 05:19:45;;;;;;;10.48;5.97;;;13.40;99.90;;;;;;5071323;28;20129;-58
2021/06/02 05:22:32;;;;;;;11.77;6.10;;;13.50;99.90;;;;;;5030951;28;20044;-56
2021/06/02 05:25:23;;;;;;;8.20;5.05;;;13.60;99.90;;;;;;5033820;28;20071;-55
2021/06/02 05:28:26;;;;;;;7.68;4.85;;;13.70;99.90;;;;;;5024736;28;20048;-56
2021/06/02 05:31:13;;;;;;;12.38;5.03;;;13.80;99.90;;;;;;5064956;28;20047;-53
2021/06/02 05:34:00;;;;;;;12.23;5.57;;;13.90;99.90;;;;;;5060392;28;20040;-57
2021/06/02 05:36:59;;;;;;;10.18;4.97;;;14.10;99.90;;;;;;5057881;28;20138;-56
2021/06/02 05:40:02;;;;;;;6.05;4.60;;;14.10;99.90;;;;;;5063568;28;20029;-54
2021/06/02 05:42:58;;;;;;;12.45;5.28;;;14.30;99.90;;;;;;5042853;28;20037;-57
2021/06/02 05:46:02;;;;;;;6.07;4.47;;;14.40;99.90;;;;;;5068718;28;20394;-56
2021/06/02 05:48:49;;;;;;;7.57;4.10;;;14.50;99.90;;;;;;5065615;28;20292;-57
2021/06/02 05:51:51;;;;;;;6.13;4.22;;;14.60;99.90;;;;;;5069120;28;20494;-58
2021/06/02 05:54:22;;;;;;;8.80;4.97;;;14.70;99.90;;;;;;5068673;28;20037;-57
2021/06/02 05:56:51;;;;;;;8.60;4.45;;;14.80;99.90;;;;;;5067921;28;20115;-58
2021/06/02 05:59:31;;;;;;;6.85;4.30;;;14.90;99.90;;;;;;5069335;28;20394;-60
2021/06/02 06:02:16;;;;;;;6.13;3.97;;;15.00;99.90;;;;;;5068787;28;20133;-57
2021/06/02 06:05:15;;;;;;;11.07;4.53;;;15.10;99.90;;;;;;5068757;28;20474;-57
2021/06/02 06:07:49;;;;;;;7.05;3.92;;;15.20;99.90;;;;;;5065329;28;20490;-60
2021/06/02 06:10:46;;;;;;;9.18;4.25;;;15.30;99.90;;;;;;5069501;28;20145;-60
2021/06/02 06:13:30;;;;;;;7.45;3.65;;;15.40;99.90;;;;;;5064865;28;20933;-60
2021/06/02 06:16:22;;;;;;;6.25;4.30;;;15.50;99.90;;;;;;5065124;28;20043;-59
2021/06/02 06:19:32;;;;;;;6.35;3.95;;;15.50;99.90;;;;;;5019508;28;20041;-60
2021/06/02 06:22:39;;;;;;;11.68;3.53;;;15.60;99.90;;;;;;5020350;28;20063;-59
2021/06/02 06:25:13;;;;;;;9.25;3.55;;;15.80;99.90;;;;;;5068672;28;20035;-56
2021/06/02 06:27:50;;;;;;;5.15;3.72;;;15.90;99.90;;;;;;5069059;28;20021;-59
2021/06/02 06:30:23;;;;;;;10.05;3.75;;;16.10;99.90;;;;;;5054537;28;20037;-60
2021/06/02 06:32:53;;;;;;;9.35;3.55;;;16.10;99.90;;;;;;5067364;28;20025;-61
2021/06/02 06:35:20;;;;;;;6.18;3.50;;;16.20;99.90;;;;;;5065684;28;20024;-59
2021/06/02 06:37:50;;;;;;;10.15;4.72;;;16.40;99.90;;;;;;5058628;28;20051;-59
2021/06/02 06:40:24;;;;;;;8.13;4.28;;;16.40;99.90;;;;;;5063248;28;20051;-59
2021/06/02 06:42:53;;;;;;;6.90;3.90;;;16.60;99.90;;;;;;5074324;28;20031;-61
2021/06/02 06:45:38;;;;;;;7.80;3.80;;;16.60;99.90;;;;;;5072056;28;20093;-59
2021/06/02 06:48:12;;;;;;;13.43;4.03;;;16.70;99.90;;;;;;5074315;28;20059;-60
2021/06/02 06:50:39;;;;;;;12.73;7.55;;;16.80;99.90;;;;;;5072104;28;20127;-59
2021/06/02 06:53:07;;;;;;;9.60;4.60;;;16.90;99.90;;;;;;5051401;28;20044;-57
2021/06/02 06:55:34;;;;;;;6.03;3.67;;;17.00;99.90;;;;;;5072235;28;20037;-59
2021/06/02 06:58:00;;;;;;;7.75;3.92;;;17.10;99.90;;;;;;5072448;28;20035;-57
2021/06/02 07:00:26;;;;;;;10.50;4.25;;;17.20;99.90;;;;;;5071414;28;20581;-58
2021/06/02 07:02:52;;;;;;;9.98;4.10;;;17.20;99.90;;;;;;5067336;28;20056;-59
2021/06/02 07:05:20;;;;;;;6.97;3.88;;;17.30;99.90;;;;;;5069718;28;20101;-59
2021/06/02 07:07:46;;;;;;;10.48;3.65;;;17.40;99.90;;;;;;5067963;28;20035;-61
2021/06/02 07:10:13;;;;;;;8.43;3.97;;;17.50;99.90;;;;;;5075665;28;20748;-59
2021/06/02 07:12:41;;;;;;;8.90;4.03;;;17.60;99.90;;;;;;5077874;28;20588;-59
2021/06/02 07:15:09;;;;;;;9.40;4.18;;;17.70;99.90;;;;;;5076798;28;20039;-58
2021/06/02 07:17:39;;;;;;;7.90;3.40;;;17.80;99.90;;;;;;5071013;28;20040;-58
2021/06/02 07:20:06;;;;;;;8.02;3.50;;;17.90;99.90;;;;;;5071053;28;20024;-59
2021/06/02 07:22:35;;;;;;;27.27;6.13;;;17.90;99.90;;;;;;5072719;28;20040;-59
2021/06/02 07:25:02;;;;;;;7.43;3.85;;;18.10;99.90;;;;;;5069399;28;20035;-60
2021/06/02 07:27:28;;;;;;;8.05;3.67;;;18.20;99.90;;;;;;5072049;28;20024;-59
2021/06/02 07:29:54;;;;;;;17.60;4.00;;;18.40;99.90;;;;;;5062476;28;20024;-60
2021/06/02 07:32:20;;;;;;;7.38;3.90;;;18.50;99.90;;;;;;5079142;28;20090;-58
2021/06/02 07:34:46;;;;;;;9.05;3.80;;;18.60;99.90;;;;;;5069586;28;20032;-58
2021/06/02 07:37:12;;;;;;;8.73;3.72;;;18.60;99.90;;;;;;5069311;28;20029;-58
2021/06/02 07:39:37;;;;;;;5.60;3.40;;;18.80;99.90;;;;;;5059602;28;20086;-60
2021/06/02 07:42:05;;;;;;;10.73;4.00;;;18.80;99.90;;;;;;5069912;28;20028;-56
2021/06/02 07:44:31;;;;;;;13.55;3.97;;;18.90;99.90;;;;;;5060050;28;20440;-61
2021/06/02 07:46:57;;;;;;;9.02;3.40;;;19.00;99.90;;;;;;5047894;28;20123;-59
2021/06/02 07:49:22;;;;;;;7.60;4.13;;;19.10;99.90;;;;;;5050759;28;20541;-60
2021/06/02 07:51:51;;;;;;;9.35;5.85;;;19.20;99.90;;;;;;5052495;28;20120;-58
2021/06/02 07:54:18;;;;;;;9.07;3.90;;;19.30;99.90;;;;;;5069550;28;20041;-59
2021/06/02 07:56:44;;;;;;;10.45;3.67;;;19.40;99.90;;;;;;5068917;28;20028;-59
2021/06/02 07:59:09;;;;;;;6.78;3.00;;;19.60;99.90;;;;;;5070007;28;20046;-60
2021/06/02 08:01:35;;;;;;;7.53;3.70;;;19.60;99.90;;;;;;5069776;28;20060;-57
2021/06/02 08:04:01;;;;;;;7.97;3.47;;;19.70;99.90;;;;;;5070647;28;20033;-60
2021/06/02 08:06:26;;;;;;;7.68;3.60;;;19.70;99.90;;;;;;5068408;28;20033;-61
2021/06/02 08:08:52;;;;;;;6.10;3.50;;;19.80;99.90;;;;;;5066448;28;20061;-60
2021/06/02 08:11:17;;;;;;;10.35;3.50;;;19.80;99.90;;;;;;5067897;28;20074;-57
2021/06/02 08:13:43;;;;;;;9.52;4.35;;;20.00;99.90;;;;;;5070518;28;20099;-59
2021/06/02 08:16:08;;;;;;;8.10;3.45;;;20.10;99.90;;;;;;5066810;28;20518;-59
2021/06/02 08:18:34;;;;;;;12.25;3.90;;;20.20;99.90;;;;;;5068310;28;20021;-60
2021/06/02 08:20:59;;;;;;;8.10;3.65;;;20.30;99.90;;;;;;5063714;28;20029;-57
2021/06/02 08:23:25;;;;;;;5.63;3.10;;;20.50;99.90;;;;;;5072967;28;20108;-58
2021/06/02 08:25:51;;;;;;;4.28;3.00;;;20.60;99.90;;;;;;5052797;28;20081;-57
2021/06/02 08:28:19;;;;;;;4.88;3.17;;;20.60;99.90;;;;;;5073574;28;20379;-56
2021/06/02 08:30:44;;;;;;;9.77;4.10;;;20.70;99.90;;;;;;5071892;28;20036;-58
2021/06/02 08:33:10;;;;;;;8.35;3.42;;;20.90;99.90;;;;;;5069748;28;20093;-58
2021/06/02 08:35:35;;;;;;;8.80;3.58;;;20.90;99.90;;;;;;5067907;28;20085;-55
2021/06/02 08:38:02;;;;;;;11.52;3.13;;;21.00;99.90;;;;;;5064913;28;20029;-53
2021/06/02 08:40:27;;;;;;;9.77;3.00;;;21.10;99.90;;;;;;5067592;28;20035;-57
2021/06/02 08:42:53;;;;;;;6.07;3.90;;;21.20;99.90;;;;;;5062886;28;20025;-58
2021/06/02 08:45:19;;;;;;;9.38;3.65;;;21.30;99.90;;;;;;5062858;28;20046;-56
2021/06/02 08:47:47;;;;;;;10.82;3.97;;;21.40;99.90;;;;;;5069092;28;20031;-56
2021/06/02 08:50:14;;;;;;;8.73;3.28;;;21.60;99.90;;;;;;5066163;28;20040;-57
2021/06/02 08:52:41;;;;;;;14.77;3.63;;;21.70;99.90;;;;;;5068767;28;20113;-58
2021/06/02 08:55:09;;;;;;;7.85;3.28;;;21.80;99.90;;;;;;5062286;28;20036;-58
2021/06/02 08:57:38;;;;;;;16.50;3.80;;;21.90;99.90;;;;;;5067128;28;20024;-57
2021/06/02 09:00:07;;;;;;;9.32;3.25;;;22.00;99.90;;;;;;5067586;28;20486;-58
2021/06/02 09:02:33;;;;;;;6.72;2.65;;;22.10;99.90;;;;;;5065733;28;20125;-57
2021/06/02 09:04:58;;;;;;;8.63;3.00;;;22.30;99.90;;;;;;5077161;28;20060;-58
2021/06/02 09:07:26;;;;;;;9.43;2.50;;;22.40;99.90;;;;;;5070369;28;20028;-59
2021/06/02 09:09:52;;;;;;;6.93;2.90;;;22.60;99.90;;;;;;5065341;28;20130;-59
2021/06/02 09:12:34;;;;;;;3.85;2.75;;;22.70;99.90;;;;;;5069475;28;20123;-60
2021/06/02 09:15:04;;;;;;;7.03;2.85;;;22.80;99.90;;;;;;5070358;28;20351;-55
2021/06/02 09:17:29;;;;;;;4.90;2.78;;;22.90;99.90;;;;;;5064506;28;20068;-58
2021/06/02 09:19:55;;;;;;;8.07;3.10;;;23.00;99.90;;;;;;5067831;28;20438;-55
2021/06/02 09:22:22;;;;;;;5.10;2.88;;;23.20;99.90;;;;;;5067818;28;20531;-53
2021/06/02 09:24:54;;;;;;;6.55;2.50;;;23.40;99.90;;;;;;5071097;28;20031;-59
2021/06/02 09:27:48;;;;;;;56.97;5.22;;;23.60;99.90;;;;;;5068553;28;20497;-57
2021/06/02 09:30:21;;;;;;;13.25;3.20;;;23.70;99.90;;;;;;5066482;28;20031;-59
2021/06/02 09:32:49;;;;;;;3.63;2.63;;;24.00;99.90;;;;;;5066847;28;20050;-56
2021/06/02 09:35:16;;;;;;;12.93;2.80;;;24.10;99.90;;;;;;5069837;28;20033;-58
2021/06/02 09:37:54;;;;;;;31.45;5.07;;;24.30;99.90;;;;;;5074967;28;20457;-57
2021/06/02 09:40:31;;;;;;;127.45;13.82;;;24.40;99.90;;;;;;5070342;28;20413;-54
2021/06/02 09:42:57;;;;;;;67.50;7.70;;;24.60;97.70;;;;;;5049163;28;20059;-59
2021/06/02 09:45:24;;;;;;;11.02;3.10;;;24.70;95.70;;;;;;5070017;28;20478;-58
2021/06/02 09:47:54;;;;;;;7.28;2.17;;;24.80;96.50;;;;;;5073762;28;20039;-60
2021/06/02 09:50:33;;;;;;;3.40;1.70;;;25.00;94.30;;;;;;5069166;28;20025;-60
2021/06/02 09:53:02;;;;;;;2.95;1.42;;;25.20;92.40;;;;;;5076379;28;20032;-58
2021/06/02 09:55:39;;;;;;;5.32;1.98;;;25.30;88.50;;;;;;5071910;28;20032;-57
2021/06/02 09:58:13;;;;;;;8.65;2.05;;;25.50;88.10;;;;;;5057316;28;20029;-59
2021/06/02 10:00:58;;;;;;;6.22;1.55;;;25.70;86.30;;;;;;5054125;28;20025;-60
2021/06/02 10:03:28;;;;;;;;;;;25.80;83.90;;;;;;5068112;28;20024;-57
2021/06/02 10:05:54;;;;;;;1.92;1.42;;;25.80;79.00;;;;;;5067593;28;19918;-58
2021/06/02 10:08:34;;;;;;;7.97;1.85;;;26.00;81.50;;;;;;5061944;28;20079;-59
2021/06/02 10:11:16;;;;;;;7.57;2.47;;;26.20;85.70;;;;;;5063643;28;20061;-61
2021/06/02 10:13:43;;;;;;;4.22;2.10;;;26.50;87.60;;;;;;5065145;28;20058;-60
2021/06/02 10:16:11;;;;;;;8.82;2.05;;;26.60;84.70;;;;;;5066700;28;20487;-61
2021/06/02 10:18:39;;;;;;;4.78;2.15;;;26.80;82.90;;;;;;5062808;28;20032;-60
2021/06/02 10:21:15;;;;;;;3.55;2.15;;;26.90;84.20;;;;;;5064333;28;20098;-60
2021/06/02 10:23:43;;;;;;;4.55;2.10;;;27.00;81.10;;;;;;5068807;28;20055;-62
2021/06/02 10:26:11;;;;;;;5.68;2.05;;;27.20;81.50;;;;;;5069241;28;20376;-61
2021/06/02 10:28:37;;;;;;;4.95;1.98;;;27.40;83.90;;;;;;5070436;28;20082;-62
2021/06/02 10:31:06;;;;;;;6.45;2.55;;;27.40;80.40;;;;;;5073509;28;20434;-60
2021/06/02 10:33:33;;;;;;;7.22;2.17;;;27.70;81.70;;;;;;5072016;28;20032;-61
2021/06/02 10:36:01;;;;;;;6.88;2.15;;;27.80;82.70;;;;;;5068373;28;20039;-59
2021/06/02 10:38:44;;;;;;;2.58;1.85;;;27.90;76.40;;;;;;5067662;28;20029;-60
2021/06/02 10:41:15;;;;;;;4.10;2.15;;;27.80;80.20;;;;;;5067657;28;20021;-58
2021/06/02 10:43:43;;;;;;;1.77;1.67;;;28.00;77.90;;;;;;5066207;28;20036;-60
2021/06/02 10:46:15;;;;;;;3.05;1.75;;;28.10;77.40;;;;;;5067764;28;20048;-61
2021/06/02 10:48:46;;;;;;;2.50;1.73;;;28.20;77.20;;;;;;5075096;28;20020;-58
2021/06/02 10:51:43;;;;;;;2.90;1.67;;;28.20;71.90;;;;;;5062757;28;20056;-59
2021/06/02 10:54:13;;;;;;;4.95;1.90;;;27.80;69.00;;;;;;5063844;28;20017;-61
2021/06/02 10:56:41;;;;;;;5.10;1.95;;;27.90;76.00;;;;;;5071846;28;20129;-59
2021/06/02 10:59:28;;;;;;;5.82;1.80;;;28.20;73.60;;;;;;5067709;28;20028;-59
2021/06/02 11:02:11;;;;;;;3.03;2.05;;;28.40;71.30;;;;;;5059284;28;20025;-60
2021/06/02 11:04:59;;;;;;;8.88;1.92;;;28.20;69.60;;;;;;5071967;28;20025;-60
2021/06/02 11:07:39;;;;;;;4.28;1.75;;;28.40;68.50;;;;;;5067358;28;20029;-62
2021/06/02 11:10:07;;;;;;;4.00;2.35;;;28.20;68.10;;;;;;5066730;28;20025;-59
2021/06/02 11:12:48;;;;;;;5.95;2.20;;;28.30;71.70;;;;;;5073529;28;20081;-59
2021/06/02 11:15:35;;;;;;;9.80;2.05;;;28.30;67.10;;;;;;5077154;28;20021;-60
2021/06/02 11:18:09;;;;;;;5.70;1.98;;;28.40;67.10;;;;;;5064615;28;20024;-60
2021/06/02 11:20:39;;;;;;;3.65;1.70;;;28.30;64.80;;;;;;5067362;28;20044;-60
2021/06/02 11:23:06;;;;;;;8.60;2.03;;;28.40;66.00;;;;;;5067782;28;20032;-59
2021/06/02 11:25:32;;;;;;;7.60;2.25;;;28.50;68.40;;;;;;5049600;28;20112;-61
2021/06/02 11:27:57;;;;;;;5.05;2.13;;;28.80;70.40;;;;;;5066593;28;20490;-59
2021/06/02 11:30:25;;;;;;;3.67;1.73;;;28.90;69.80;;;;;;5069758;28;20040;-61
2021/06/02 11:32:52;;;;;;;5.78;1.70;;;29.10;70.80;;;;;;5071035;28;20029;-57
2021/06/02 11:35:18;;;;;;;3.45;1.70;;;29.10;66.90;;;;;;5070200;28;20375;-60
2021/06/02 11:37:44;;;;;;;7.75;1.92;;;29.20;64.00;;;;;;5063452;28;20116;-59
2021/06/02 11:40:15;;;;;;;2.17;1.65;;;29.40;61.80;;;;;;5065146;28;20037;-58
2021/06/02 11:42:42;;;;;;;4.78;1.83;;;29.40;63.80;;;;;;5068378;28;20029;-61
2021/06/02 11:45:17;;;;;;;5.55;1.55;;;29.60;62.90;;;;;;5062497;28;20078;-57
2021/06/02 11:47:48;;;;;;;6.03;2.00;;;29.60;59.20;;;;;;5062964;28;20029;-59
2021/06/02 11:50:15;;;;;;;7.50;1.83;;;29.60;63.50;;;;;;5068306;28;20427;-61
2021/06/02 11:52:43;;;;;;;6.28;1.55;;;29.60;60.40;;;;;;5069309;28;20036;-59
2021/06/02 11:55:15;;;;;;;3.60;1.50;;;29.80;63.20;;;;;;5067507;28;20113;-58
2021/06/02 11:57:46;;;;;;;2.10;1.58;;;29.70;62.70;;;;;;5069855;28;20029;-59
2021/06/02 12:00:24;;;;;;;4.95;1.50;;;29.90;64.30;;;;;;5060402;28;20020;-60
2021/06/02 12:02:58;;;;;;;1.90;1.65;;;30.10;59.70;;;;;;5065510;28;20034;-60
2021/06/02 12:05:29;;;;;;;4.72;1.35;;;29.90;58.00;;;;;;5069631;28;20020;-61
2021/06/02 12:08:00;;;;;;;2.28;1.77;;;30.00;58.50;;;;;;5069849;28;20490;-60
2021/06/02 12:10:47;;;;;;;2.90;1.42;;;30.20;59.90;;;;;;5060038;28;20120;-60
2021/06/02 12:13:26;;;;;;;5.28;1.52;;;30.40;57.40;;;;;;5059291;28;20064;-59
2021/06/02 12:15:58;;;;;;;1.83;1.42;;;30.30;58.50;;;;;;5065032;28;20031;-61
2021/06/02 12:18:41;;;;;;;2.50;1.45;;;30.40;57.30;;;;;;5064546;28;20154;-60
2021/06/02 12:21:07;;;;;;;7.05;1.75;;;30.30;56.10;;;;;;5063030;28;20635;-61
2021/06/02 12:23:33;;;;;;;2.50;1.60;;;29.90;56.40;;;;;;5066394;28;20032;-56
2021/06/02 12:25:59;;;;;;;2.72;1.70;;;30.10;60.70;;;;;;5067392;28;20016;-60
2021/06/02 12:28:24;;;;;;;5.63;1.60;;;30.40;60.30;;;;;;5060392;28;20107;-59
2021/06/02 12:30:50;;;;;;;4.50;1.70;;;30.40;64.20;;;;;;5067601;28;20067;-59
2021/06/02 12:33:16;;;;;;;5.47;1.80;;;30.40;64.00;;;;;;5066768;28;20028;-60
2021/06/02 12:35:45;;;;;;;3.35;1.42;;;30.70;59.60;;;;;;5064321;28;20107;-60
2021/06/02 12:38:17;;;;;;;2.70;1.67;;;30.70;59.30;;;;;;5061088;28;20037;-60
2021/06/02 12:40:53;;;;;;;4.07;1.80;;;30.70;58.00;;;;;;5064776;28;20035;-60
2021/06/02 12:43:22;;;;;;;9.20;1.65;;;30.70;60.30;;;;;;5065525;28;20029;-59
2021/06/02 12:45:50;;;;;;;4.63;1.27;;;30.70;58.30;;;;;;5062977;28;20150;-59
2021/06/02 12:48:18;;;;;;;4.97;1.58;;;30.60;58.30;;;;;;5068029;28;20025;-60
2021/06/02 12:50:47;;;;;;;4.70;1.73;;;30.50;57.90;;;;;;5068605;28;20040;-59
2021/06/02 12:53:15;;;;;;;3.45;1.38;;;30.70;57.80;;;;;;5061912;28;20039;-58
2021/06/02 12:55:43;;;;;;;2.80;1.63;;;30.60;57.50;;;;;;5063435;28;20043;-58
2021/06/02 12:58:19;;;;;;;1.77;1.58;;;30.60;56.80;;;;;;5064362;28;20030;-61
2021/06/02 13:00:47;;;;;;;2.88;1.50;;;30.70;60.60;;;;;;5065272;28;20032;-60
2021/06/02 13:03:21;;;;;;;6.93;1.52;;;30.70;57.60;;;;;;5064031;28;20032;-59
2021/06/02 13:05:48;;;;;;;;;;;30.70;60.80;;;;;;5067837;28;20032;-60
2021/06/02 13:08:14;;;;;;;3.03;1.35;;;30.90;58.00;;;;;;5062924;28;19909;-60
2021/06/02 13:10:44;;;;;;;3.90;1.73;;;30.90;57.60;;;;;;5070804;28;20060;-61
2021/06/02 13:13:12;;;;;;;3.85;1.30;;;30.90;57.60;;;;;;5067983;28;20032;-61
2021/06/02 13:16:03;;;;;;;4.82;1.63;;;31.00;59.50;;;;;;5066884;28;20547;-61
2021/06/02 13:18:30;;;;;;;3.72;1.30;;;30.70;59.80;;;;;;5063137;28;20037;-61
2021/06/02 13:21:18;;;;;;;6.20;2.00;;;30.80;57.70;;;;;;5063934;28;20036;-56
2021/06/02 13:23:44;;;;;;;3.03;1.60;;;30.50;58.30;;;;;;5062430;28;20127;-59